Terminal Aerodrome Forecast
Issued by NWS

Home | Current Version | Previous Version | Text Only | Print | Product List | Glossary On
Versions: 1 2 3 4 5 6 7 8 9 10 11 12 13 14 15 16 17 18 19 20
000
FTUS44 KHGX 170522
TAFLBX
TAF
KLBX 170522Z 1706/1806 12007KT P6SM SCT025 SCT035 BKN250
     FM170700 09005KT P6SM SCT015 BKN025
     FM171400 11008KT P6SM BKN035 BKN250
     FM180200 07006KT P6SM BKN060=

USA.gov is the U.S. government's official web portal to all federal, state and local government web resources and services.